Terminal Aerodrome Forecast
Issued by NWS

Home | Current Version | Previous Version | Text Only | Print | Product List | Glossary On
Versions: 1 2 3 4 5 6 7 8 9 10 11 12 13 14 15
850
FTUS43 KILX 241215 AAA
TAFDEC
TAF AMD
KDEC 241215Z 2412/2512 19008KT P6SM SKC WS018/22050KT
     FM241400 19014G28KT P6SM SCT150
     FM250300 17010G19KT P6SM VCTS OVC030CB
     FM250500 17010G19KT 5SM -SHRA VCTS OVC030CB
     FM250600 16010G19KT 3SM -SHRA OVC015=

USA.gov is the U.S. government's official web portal to all federal, state and local government web resources and services.